createdAt,value
2017-01-22T00:00:19.568Z,1020.61
2017-01-22T00:01:25.692Z,1020.63
2017-01-22T00:02:30.885Z,1020.6
2017-01-22T00:03:37.046Z,1020.61
2017-01-22T00:04:42.267Z,1020.62
2017-01-22T00:05:47.460Z,1020.65
2017-01-22T00:06:53.638Z,1020.68
2017-01-22T00:07:58.816Z,1020.68
2017-01-22T00:09:04.978Z,1020.65
2017-01-22T00:10:10.172Z,1020.68
2017-01-22T00:11:15.371Z,1020.66
2017-01-22T00:12:20.561Z,1020.65
2017-01-22T00:13:25.764Z,1020.68
2017-01-22T00:14:31.934Z,1020.63
2017-01-22T00:15:38.153Z,1020.62
2017-01-22T00:16:43.346Z,1020.57
2017-01-22T00:17:47.644Z,1020.55
2017-01-22T00:18:50.868Z,1020.6
2017-01-22T00:19:55.095Z,1020.59
2017-01-22T00:21:01.247Z,1020.57
2017-01-22T00:22:06.448Z,1020.61
2017-01-22T00:23:12.611Z,1020.6
2017-01-22T00:24:17.806Z,1020.58
2017-01-22T00:25:22.003Z,1020.59
2017-01-22T00:26:26.268Z,1020.56
2017-01-22T00:27:32.406Z,1020.61
2017-01-22T00:28:36.647Z,1020.62
2017-01-22T00:29:41.842Z,1020.62
2017-01-22T00:30:47.015Z,1020.63
2017-01-22T00:31:53.188Z,1020.61
2017-01-22T00:32:57.402Z,1020.62
2017-01-22T00:34:02.622Z,1020.62
2017-01-22T00:35:07.875Z,1020.62
2017-01-22T00:36:12.069Z,1020.56
2017-01-22T00:37:18.242Z,1020.63
2017-01-22T00:38:24.404Z,1020.61
2017-01-22T00:39:30.572Z,1020.58
2017-01-22T00:40:35.765Z,1020.58
2017-01-22T00:41:40.954Z,1020.58
2017-01-22T00:42:45.184Z,1020.57
2017-01-22T00:43:50.378Z,1020.58
2017-01-22T00:44:55.649Z,1020.49
2017-01-22T00:45:59.882Z,1020.52
2017-01-22T00:47:06.041Z,1020.52
2017-01-22T00:48:10.262Z,1020.54
2017-01-22T00:49:16.429Z,1020.51
2017-01-22T00:50:19.660Z,1020.51
2017-01-22T00:51:24.922Z,1020.55
2017-01-22T00:52:31.092Z,1020.58
2017-01-22T00:53:35.294Z,1020.56
2017-01-22T00:54:41.485Z,1020.58
2017-01-22T00:55:46.686Z,1020.57
2017-01-22T00:56:51.857Z,1020.56
2017-01-22T00:57:56.075Z,1020.57
2017-01-22T00:59:02.238Z,1020.55
2017-01-22T01:00:08.402Z,1020.6
2017-01-22T01:01:13.595Z,1020.59
2017-01-22T01:02:17.820Z,1020.61
2017-01-22T01:03:23.003Z,1020.59
2017-01-22T01:04:28.179Z,1020.6
2017-01-22T01:05:34.348Z,1020.57
2017-01-22T01:06:39.550Z,1020.58
2017-01-22T01:07:44.754Z,1020.6
2017-01-22T01:08:50.906Z,1020.6
2017-01-22T01:09:54.137Z,1020.61
2017-01-22T01:11:00.291Z,1020.57
2017-01-22T01:12:03.606Z,1020.55
2017-01-22T01:13:08.802Z,1020.53
2017-01-22T01:14:11.177Z,1020.54
2017-01-22T01:15:16.378Z,1020.53
2017-01-22T01:16:21.577Z,1020.55
2017-01-22T01:17:27.738Z,1020.57
2017-01-22T01:18:32.931Z,1020.57
2017-01-22T01:19:39.093Z,1020.55
2017-01-22T01:20:44.294Z,1020.56
2017-01-22T01:21:50.466Z,1020.55
2017-01-22T01:22:56.625Z,1020.52
2017-01-22T01:24:01.817Z,1020.59
2017-01-22T01:25:07.976Z,1020.58
2017-01-22T01:26:13.240Z,1020.55
2017-01-22T01:27:19.422Z,1020.52
2017-01-22T01:28:24.576Z,1020.53
2017-01-22T01:29:29.822Z,1020.52
2017-01-22T01:30:35.939Z,1020.49
2017-01-22T01:31:41.129Z,1020.54
2017-01-22T01:32:45.338Z,1020.55
2017-01-22T01:33:49.557Z,1020.52
2017-01-22T01:34:52.826Z,1020.51
2017-01-22T01:35:56.993Z,1020.48
2017-01-22T01:37:03.149Z,1020.48
2017-01-22T01:38:08.336Z,1020.47
2017-01-22T01:39:14.495Z,1020.49
2017-01-22T01:40:20.651Z,1020.46
2017-01-22T01:41:26.816Z,1020.47
2017-01-22T01:42:32.008Z,1020.48
2017-01-22T01:43:37.250Z,1020.46
2017-01-22T01:44:42.377Z,1020.46
2017-01-22T01:45:47.569Z,1020.52
2017-01-22T01:46:51.788Z,1020.47
2017-01-22T01:47:56.009Z,1020.53
2017-01-22T01:49:01.204Z,1020.54
2017-01-22T01:50:07.403Z,1020.53
2017-01-22T01:51:11.641Z,1020.53
2017-01-22T01:52:15.865Z,1020.49
2017-01-22T01:53:21.136Z,1020.5
2017-01-22T01:54:27.447Z,1020.46
2017-01-22T01:55:32.604Z,1020.45
2017-01-22T01:56:38.764Z,1020.51
2017-01-22T01:57:44.918Z,1020.46
2017-01-22T01:58:51.099Z,1020.42
2017-01-22T01:59:55.297Z,1020.43
2017-01-22T02:01:00.498Z,1020.38
2017-01-22T02:02:05.691Z,1020.44
2017-01-22T02:03:11.865Z,1020.42
2017-01-22T02:04:15.102Z,1020.38
2017-01-22T02:05:21.273Z,1020.42
2017-01-22T02:06:25.498Z,1020.46
2017-01-22T02:07:31.663Z,1020.39
2017-01-22T02:08:35.884Z,1020.41
2017-01-22T02:09:40.120Z,1020.41
2017-01-22T02:10:45.322Z,1020.42
2017-01-22T02:11:49.521Z,1020.35
2017-01-22T02:12:55.777Z,1020.34
2017-01-22T02:14:00.001Z,1020.28
2017-01-22T02:15:05.184Z,1020.31
2017-01-22T02:16:10.395Z,1020.3
2017-01-22T02:17:15.558Z,1020.28
2017-01-22T02:18:20.753Z,1020.25
2017-01-22T02:19:25.942Z,1020.2
2017-01-22T02:20:30.152Z,1020.26
2017-01-22T02:21:35.351Z,1020.24
2017-01-22T02:22:40.551Z,1020.22
2017-01-22T02:23:46.692Z,1020.24
2017-01-22T02:24:52.860Z,1020.22
2017-01-22T02:25:59.081Z,1020.21
2017-01-22T02:27:05.235Z,1020.21
2017-01-22T02:28:11.393Z,1020.22
2017-01-22T02:29:15.588Z,1020.21
2017-01-22T02:30:21.761Z,1020.23
2017-01-22T02:31:27.954Z,1020.19
2017-01-22T02:32:33.123Z,1020.19
2017-01-22T02:33:39.288Z,1020.19
2017-01-22T02:34:44.445Z,1020.13
2017-01-22T02:35:50.616Z,1020.18
2017-01-22T02:36:55.821Z,1020.17
2017-01-22T02:38:01.982Z,1020.19
2017-01-22T02:39:08.143Z,1020.14
2017-01-22T02:40:14.315Z,1020.12
2017-01-22T02:41:18.547Z,1020.15
2017-01-22T02:42:24.748Z,1020.16
2017-01-22T02:43:30.915Z,1020.18
2017-01-22T02:44:36.110Z,1020.2
2017-01-22T02:45:41.296Z,1020.25
2017-01-22T02:46:47.516Z,1020.23
2017-01-22T02:47:53.675Z,1020.19
2017-01-22T02:48:57.909Z,1020.21
2017-01-22T02:50:03.108Z,1020.19
2017-01-22T02:51:09.262Z,1020.16
2017-01-22T02:52:14.453Z,1020.2
2017-01-22T02:53:18.643Z,1020.16
2017-01-22T02:54:24.814Z,1020.15
2017-01-22T02:55:28.040Z,1020.15
2017-01-22T02:56:34.215Z,1020.14
2017-01-22T02:57:39.406Z,1020.14
2017-01-22T02:58:45.587Z,1020.11
2017-01-22T02:59:51.745Z,1020.16
2017-01-22T03:00:57.912Z,1020.16
2017-01-22T03:02:04.076Z,1020.13
2017-01-22T03:03:10.235Z,1020.13
2017-01-22T03:04:15.427Z,1020.13
2017-01-22T03:05:19.632Z,1020.13
2017-01-22T03:06:24.829Z,1020.16
2017-01-22T03:07:29.095Z,1020.14
2017-01-22T03:08:34.276Z,1020.21
2017-01-22T03:09:40.441Z,1020.1
2017-01-22T03:10:44.698Z,1020.12
2017-01-22T03:11:49.881Z,1020.06
2017-01-22T03:12:55.138Z,1020.11
2017-01-22T03:14:00.325Z,1020.04
2017-01-22T03:15:05.541Z,1020.07
2017-01-22T03:16:10.664Z,1020.08
2017-01-22T03:17:16.831Z,1020.11
2017-01-22T03:18:22.024Z,1020.14
2017-01-22T03:19:27.252Z,1020.12
2017-01-22T03:20:33.387Z,1020.08
2017-01-22T03:21:36.641Z,1020.14
2017-01-22T03:22:42.799Z,1020.11
2017-01-22T03:23:48.951Z,1020.14
2017-01-22T03:24:53.178Z,1020.12
2017-01-22T03:25:59.334Z,1020.12
2017-01-22T03:27:04.529Z,1020.13
2017-01-22T03:28:10.688Z,1020.08
2017-01-22T03:29:15.985Z,1020.04
2017-01-22T03:30:21.173Z,1020.07
2017-01-22T03:31:26.419Z,1020.06
2017-01-22T03:32:31.610Z,1020.05
2017-01-22T03:33:35.853Z,1020.08
2017-01-22T03:34:42.002Z,1020.09
2017-01-22T03:35:47.215Z,1020.08
2017-01-22T03:36:51.548Z,1020.08
2017-01-22T03:37:56.764Z,1020.11
2017-01-22T03:39:01.969Z,1020.11
2017-01-22T03:40:08.132Z,1020.1
2017-01-22T03:41:14.294Z,1020.13
2017-01-22T03:42:19.455Z,1020.1
2017-01-22T03:43:24.634Z,1020.08
2017-01-22T03:44:29.899Z,1020.08
2017-01-22T03:45:34.124Z,1020.09
2017-01-22T03:46:39.381Z,1020.07
2017-01-22T03:47:43.542Z,1020.09
2017-01-22T03:48:49.704Z,1020.13
2017-01-22T03:49:54.966Z,1020.1
2017-01-22T03:51:01.170Z,1020.08
2017-01-22T03:52:05.452Z,1020.1
2017-01-22T03:53:09.673Z,1020.09
2017-01-22T03:54:15.879Z,1020.05
2017-01-22T03:55:22.025Z,1020.05
2017-01-22T03:56:27.225Z,1020.09
2017-01-22T03:57:31.422Z,1020.07
2017-01-22T03:58:35.659Z,1020.1
2017-01-22T03:59:40.856Z,1020.05
2017-01-22T04:00:46.023Z,1020.04
2017-01-22T04:01:52.199Z,1020.04
2017-01-22T04:02:58.372Z,1020.05
2017-01-22T04:04:03.611Z,1020.03
2017-01-22T04:05:09.767Z,1019.99
2017-01-22T04:06:15.959Z,1019.96
2017-01-22T04:07:21.144Z,1019.96
2017-01-22T04:08:26.320Z,1019.96
2017-01-22T04:09:32.472Z,1019.94
2017-01-22T04:10:38.682Z,1019.95
2017-01-22T04:11:43.880Z,1019.95
2017-01-22T04:12:49.214Z,1019.94
2017-01-22T04:13:55.372Z,1019.97
2017-01-22T04:15:00.576Z,1019.97
2017-01-22T04:16:05.833Z,1020
2017-01-22T04:17:11.016Z,1019.98
2017-01-22T04:18:17.183Z,1019.96
2017-01-22T04:19:23.390Z,1019.93
2017-01-22T04:20:28.580Z,1019.92
2017-01-22T04:21:34.739Z,1019.93
2017-01-22T04:22:39.940Z,1019.94
2017-01-22T04:23:45.133Z,1019.95
2017-01-22T04:24:51.293Z,1019.95
2017-01-22T04:25:57.494Z,1019.96
2017-01-22T04:27:02.702Z,1019.95
2017-01-22T04:28:08.862Z,1019.92
2017-01-22T04:29:14.093Z,1019.97
2017-01-22T04:30:20.220Z,1019.95
2017-01-22T04:31:26.399Z,1019.93
2017-01-22T04:32:31.619Z,1019.96
2017-01-22T04:33:36.766Z,1019.97
2017-01-22T04:34:42.923Z,1019.97
2017-01-22T04:35:47.139Z,1019.97
2017-01-22T04:36:53.308Z,1019.96
2017-01-22T04:37:59.474Z,1019.95
2017-01-22T04:39:05.632Z,1019.98
2017-01-22T04:40:10.823Z,1020
2017-01-22T04:41:16.076Z,1019.99
2017-01-22T04:42:20.252Z,1019.98
2017-01-22T04:43:25.451Z,1020
2017-01-22T04:44:30.613Z,1019.95
2017-01-22T04:45:36.769Z,1020
2017-01-22T04:46:42.979Z,1019.99
2017-01-22T04:47:49.140Z,1019.99
2017-01-22T04:48:55.398Z,1019.98
2017-01-22T04:50:01.558Z,1019.96
2017-01-22T04:51:04.788Z,1019.93
2017-01-22T04:52:09.983Z,1019.9
2017-01-22T04:53:15.182Z,1019.9
2017-01-22T04:54:20.392Z,1019.89
2017-01-22T04:55:26.553Z,1019.93
2017-01-22T04:56:31.751Z,1019.86
2017-01-22T04:57:35.955Z,1019.84
2017-01-22T04:58:42.113Z,1019.85
2017-01-22T04:59:48.278Z,1019.83
2017-01-22T05:00:53.479Z,1019.83
2017-01-22T05:01:57.707Z,1019.8
2017-01-22T05:03:01.938Z,1019.81
2017-01-22T05:04:08.060Z,1019.8
2017-01-22T05:05:12.293Z,1019.8
2017-01-22T05:06:16.519Z,1019.76
2017-01-22T05:07:21.752Z,1019.78
2017-01-22T05:08:27.068Z,1019.77
2017-01-22T05:09:32.251Z,1019.76
2017-01-22T05:10:37.452Z,1019.79
2017-01-22T05:11:42.602Z,1019.76
2017-01-22T05:12:48.773Z,1019.79
2017-01-22T05:13:53.935Z,1019.76
2017-01-22T05:14:59.096Z,1019.78
2017-01-22T05:16:04.257Z,1019.81
2017-01-22T05:17:10.417Z,1019.79
2017-01-22T05:18:16.581Z,1019.8
2017-01-22T05:19:22.742Z,1019.79
2017-01-22T05:20:27.960Z,1019.78
2017-01-22T05:21:33.175Z,1019.8
2017-01-22T05:22:39.458Z,1019.77
2017-01-22T05:23:43.580Z,1019.73
2017-01-22T05:24:49.756Z,1019.78
2017-01-22T05:25:55.926Z,1019.74
2017-01-22T05:27:02.086Z,1019.75
2017-01-22T05:28:07.293Z,1019.76
2017-01-22T05:29:12.479Z,1019.77
2017-01-22T05:30:17.719Z,1019.75
2017-01-22T05:31:22.911Z,1019.78
2017-01-22T05:32:29.074Z,1019.77
2017-01-22T05:33:33.313Z,1019.74
2017-01-22T05:34:39.494Z,1019.79
2017-01-22T05:35:45.656Z,1019.77
2017-01-22T05:36:49.880Z,1019.75
2017-01-22T05:37:56.048Z,1019.73
2017-01-22T05:39:00.253Z,1019.77
2017-01-22T05:40:06.412Z,1019.75
2017-01-22T05:41:11.611Z,1019.77
2017-01-22T05:42:16.799Z,1019.73
2017-01-22T05:43:21.044Z,1019.78
2017-01-22T05:44:27.178Z,1019.72
2017-01-22T05:45:33.333Z,1019.71
2017-01-22T05:46:38.534Z,1019.73
2017-01-22T05:47:43.729Z,1019.72
2017-01-22T05:48:47.954Z,1019.74
2017-01-22T05:49:54.194Z,1019.74
2017-01-22T05:50:59.361Z,1019.76
2017-01-22T05:52:04.550Z,1019.76
2017-01-22T05:53:10.709Z,1019.74
2017-01-22T05:54:15.929Z,1019.77
2017-01-22T05:55:22.058Z,1019.77
2017-01-22T05:56:28.253Z,1019.75
2017-01-22T05:57:32.480Z,1019.81
2017-01-22T05:58:38.632Z,1019.78
2017-01-22T05:59:43.836Z,1019.81
2017-01-22T06:00:50.007Z,1019.76
2017-01-22T06:01:55.284Z,1019.76
2017-01-22T06:02:59.505Z,1019.77
2017-01-22T06:04:04.696Z,1019.72
2017-01-22T06:05:10.851Z,1019.78
2017-01-22T06:06:17.032Z,1019.78
2017-01-22T06:07:22.221Z,1019.72
2017-01-22T06:08:28.385Z,1019.78
2017-01-22T06:09:32.610Z,1019.76
2017-01-22T06:10:38.781Z,1019.75
2017-01-22T06:11:44.935Z,1019.73
2017-01-22T06:12:51.095Z,1019.72
2017-01-22T06:13:57.261Z,1019.7
2017-01-22T06:15:03.429Z,1019.72
2017-01-22T06:16:09.635Z,1019.72
2017-01-22T06:17:13.829Z,1019.76
2017-01-22T06:18:18.041Z,1019.74
2017-01-22T06:19:23.230Z,1019.71
2017-01-22T06:20:27.465Z,1019.67
2017-01-22T06:21:33.632Z,1019.69
2017-01-22T06:22:39.796Z,1019.7
2017-01-22T06:23:44.993Z,1019.71
2017-01-22T06:24:50.185Z,1019.76
2017-01-22T06:25:56.350Z,1019.74
2017-01-22T06:27:00.569Z,1019.79
2017-01-22T06:28:06.731Z,1019.79
2017-01-22T06:29:10.929Z,1019.75
2017-01-22T06:30:17.089Z,1019.79
2017-01-22T06:31:23.244Z,1019.78
2017-01-22T06:32:28.433Z,1019.78
2017-01-22T06:33:34.600Z,1019.8
2017-01-22T06:34:38.889Z,1019.84
2017-01-22T06:35:44.083Z,1019.88
2017-01-22T06:36:50.240Z,1019.85
2017-01-22T06:37:54.443Z,1019.89
2017-01-22T06:38:59.639Z,1019.85
2017-01-22T06:40:05.835Z,1019.82
2017-01-22T06:41:10.050Z,1019.83
2017-01-22T06:42:13.282Z,1019.84
2017-01-22T06:43:18.471Z,1019.77
2017-01-22T06:44:24.630Z,1019.81
2017-01-22T06:45:29.932Z,1019.82
2017-01-22T06:46:34.223Z,1019.8
2017-01-22T06:47:39.415Z,1019.81
2017-01-22T06:48:45.713Z,1019.84
2017-01-22T06:49:51.874Z,1019.85
2017-01-22T06:50:57.066Z,1019.83
2017-01-22T06:52:02.258Z,1019.86
2017-01-22T06:53:07.429Z,1019.87
2017-01-22T06:54:13.590Z,1019.89
2017-01-22T06:55:17.779Z,1019.9
2017-01-22T06:56:22.948Z,1019.9
2017-01-22T06:57:28.112Z,1019.92
2017-01-22T06:58:33.282Z,1019.9
2017-01-22T06:59:37.503Z,1019.85
2017-01-22T07:00:41.720Z,1019.85
2017-01-22T07:01:45.922Z,1019.87
2017-01-22T07:02:52.089Z,1019.93
2017-01-22T07:03:56.310Z,1019.87
2017-01-22T07:05:01.525Z,1019.96
2017-01-22T07:06:06.723Z,1019.95
2017-01-22T07:07:11.933Z,1019.93
2017-01-22T07:08:18.094Z,1019.94
2017-01-22T07:09:24.255Z,1019.95
2017-01-22T07:10:30.480Z,1019.98
2017-01-22T07:11:35.693Z,1019.98
2017-01-22T07:12:40.879Z,1019.95
2017-01-22T07:13:47.040Z,1019.91
2017-01-22T07:14:52.232Z,1019.92
2017-01-22T07:15:55.466Z,1019.92
2017-01-22T07:17:01.630Z,1019.94
2017-01-22T07:18:07.880Z,1019.9
2017-01-22T07:19:11.145Z,1019.86
2017-01-22T07:20:16.428Z,1019.9
2017-01-22T07:21:22.587Z,1019.95
2017-01-22T07:22:28.737Z,1019.92
2017-01-22T07:23:34.905Z,1019.89
2017-01-22T07:24:41.074Z,1019.92
2017-01-22T07:25:46.262Z,1019.86
2017-01-22T07:26:52.461Z,1019.86
2017-01-22T07:27:58.614Z,1019.88
2017-01-22T07:29:03.806Z,1019.87
2017-01-22T07:30:07.061Z,1019.87
2017-01-22T07:31:13.203Z,1019.88
2017-01-22T07:32:19.374Z,1019.88
2017-01-22T07:33:24.563Z,1019.87
2017-01-22T07:34:29.806Z,1019.86
2017-01-22T07:35:34.950Z,1019.88
2017-01-22T07:36:39.229Z,1019.87
2017-01-22T07:37:44.352Z,1019.89
2017-01-22T07:38:49.547Z,1019.83
2017-01-22T07:39:53.771Z,1019.84
2017-01-22T07:40:59.930Z,1019.86
2017-01-22T07:42:06.088Z,1019.84
2017-01-22T07:43:10.303Z,1019.86
2017-01-22T07:44:16.477Z,1019.9
2017-01-22T07:45:21.665Z,1019.87
2017-01-22T07:46:26.852Z,1019.86
2017-01-22T07:47:32.015Z,1019.93
2017-01-22T07:48:38.239Z,1019.93
2017-01-22T07:49:44.404Z,1019.94
2017-01-22T07:50:48.621Z,1019.95
2017-01-22T07:51:54.783Z,1019.94
2017-01-22T07:53:00.943Z,1019.97
2017-01-22T07:54:07.103Z,1019.94
2017-01-22T07:55:13.262Z,1019.98
2017-01-22T07:56:18.434Z,1020.02
2017-01-22T07:57:23.608Z,1020.03
2017-01-22T07:58:28.796Z,1020.01
2017-01-22T07:59:33.017Z,1020.02
2017-01-22T08:00:38.218Z,1020.04
2017-01-22T08:01:41.472Z,1020.03
2017-01-22T08:02:46.677Z,1019.98
2017-01-22T08:03:51.878Z,1020.01
2017-01-22T08:04:58.046Z,1019.96
2017-01-22T08:06:04.207Z,1019.97
2017-01-22T08:07:09.485Z,1020
2017-01-22T08:08:14.657Z,1020.01
2017-01-22T08:09:20.834Z,1019.97
2017-01-22T08:10:25.998Z,1019.94
2017-01-22T08:11:32.155Z,1019.95
2017-01-22T08:12:37.398Z,1019.93
2017-01-22T08:13:43.536Z,1019.94
2017-01-22T08:14:49.698Z,1019.95
2017-01-22T08:15:55.864Z,1019.9
2017-01-22T08:17:02.042Z,1019.96
2017-01-22T08:18:07.229Z,1019.92
2017-01-22T08:19:10.491Z,1019.93
2017-01-22T08:20:14.711Z,1019.91
2017-01-22T08:21:19.901Z,1019.82
2017-01-22T08:22:26.071Z,1019.89
2017-01-22T08:23:32.241Z,1019.9
2017-01-22T08:24:38.416Z,1019.89
2017-01-22T08:25:44.597Z,1019.93
2017-01-22T08:26:49.774Z,1019.9
2017-01-22T08:27:55.088Z,1019.92
2017-01-22T08:29:00.311Z,1019.89
2017-01-22T08:30:05.516Z,1019.84
2017-01-22T08:31:11.687Z,1019.86
2017-01-22T08:32:16.855Z,1019.9
2017-01-22T08:33:22.080Z,1019.97
2017-01-22T08:34:26.319Z,1019.99
2017-01-22T08:35:32.491Z,1019.95
2017-01-22T08:36:37.696Z,1019.95
2017-01-22T08:37:42.897Z,1019.91
2017-01-22T08:38:48.066Z,1019.92
2017-01-22T08:39:53.274Z,1019.91
2017-01-22T08:40:59.445Z,1019.92
2017-01-22T08:42:04.651Z,1019.95
2017-01-22T08:43:09.839Z,1019.93
2017-01-22T08:44:16.007Z,1019.94
2017-01-22T08:45:21.184Z,1019.89
2017-01-22T08:46:26.394Z,1019.94
2017-01-22T08:47:31.605Z,1019.98
2017-01-22T08:48:36.806Z,1019.97
2017-01-22T08:49:42.025Z,1019.98
2017-01-22T08:50:45.261Z,1020
2017-01-22T08:51:50.443Z,1020.01
2017-01-22T08:52:55.606Z,1020.02
2017-01-22T08:54:01.776Z,1020.05
2017-01-22T08:55:07.972Z,1020.06
2017-01-22T08:56:14.145Z,1020.07
2017-01-22T08:57:20.314Z,1020.13
2017-01-22T08:58:26.507Z,1020.15
2017-01-22T08:59:30.745Z,1020.11
2017-01-22T09:00:36.930Z,1020.08
2017-01-22T09:01:42.184Z,1020.06
2017-01-22T09:02:47.393Z,1020.06
2017-01-22T09:03:53.561Z,1020.04
2017-01-22T09:04:57.798Z,1020.06
2017-01-22T09:06:03.987Z,1020.1
2017-01-22T09:07:08.291Z,1020.1
2017-01-22T09:08:11.562Z,1020.09
2017-01-22T09:09:16.770Z,1020.03
2017-01-22T09:10:21.958Z,1020.06
2017-01-22T09:11:28.124Z,1020.03
2017-01-22T09:12:33.344Z,1020.1
2017-01-22T09:13:37.547Z,1020.1
2017-01-22T09:14:43.721Z,1020.13
2017-01-22T09:15:48.931Z,1020.11
2017-01-22T09:16:54.167Z,1020.14
2017-01-22T09:17:59.353Z,1020.11
2017-01-22T09:19:03.648Z,1020.13
2017-01-22T09:20:08.851Z,1020.18
2017-01-22T09:21:14.074Z,1020.15
2017-01-22T09:22:20.248Z,1020.16
2017-01-22T09:23:25.581Z,1020.1
2017-01-22T09:24:31.844Z,1020.18
2017-01-22T09:25:35.987Z,1020.09
2017-01-22T09:26:42.167Z,1020.11
2017-01-22T09:27:48.362Z,1020.09
2017-01-22T09:28:54.552Z,1020.08
2017-01-22T09:29:59.794Z,1020.09
2017-01-22T09:31:04.172Z,1020.05
2017-01-22T09:32:10.356Z,1020.07
2017-01-22T09:33:15.565Z,1020.06
2017-01-22T09:34:20.745Z,1020.1
2017-01-22T09:35:25.030Z,1020.07
2017-01-22T09:36:31.238Z,1020.05
2017-01-22T09:37:37.409Z,1020.08
2017-01-22T09:38:43.591Z,1020.09
2017-01-22T09:39:48.800Z,1020.09
2017-01-22T09:40:55.006Z,1020.09
2017-01-22T09:42:00.217Z,1020.12
2017-01-22T09:43:06.392Z,1020.1
2017-01-22T09:44:09.638Z,1020.1
2017-01-22T09:45:13.905Z,1020.09
2017-01-22T09:46:19.105Z,1020.07
2017-01-22T09:47:24.309Z,1020.07
2017-01-22T09:48:30.549Z,1020.05
2017-01-22T09:49:35.731Z,1020.07
2017-01-22T09:50:40.955Z,1020.02
2017-01-22T09:51:47.162Z,1019.98
2017-01-22T09:52:53.305Z,1019.99
2017-01-22T09:53:59.480Z,1020.02
2017-01-22T09:55:04.680Z,1019.97
2017-01-22T09:56:07.949Z,1020.05
2017-01-22T09:57:12.246Z,1019.98
2017-01-22T09:58:17.469Z,1019.99
2017-01-22T09:59:23.667Z,1020
2017-01-22T10:00:28.876Z,1020.01
2017-01-22T10:01:35.056Z,1019.96
2017-01-22T10:02:40.266Z,1019.99
2017-01-22T10:03:46.438Z,1019.97
2017-01-22T10:04:52.611Z,1019.97
2017-01-22T10:05:56.850Z,1019.99
2017-01-22T10:07:01.096Z,1020.02
2017-01-22T10:08:07.279Z,1019.98
2017-01-22T10:09:12.490Z,1019.96
2017-01-22T10:10:17.699Z,1019.96
2017-01-22T10:11:22.888Z,1019.94
2017-01-22T10:12:27.102Z,1019.94
2017-01-22T10:13:33.273Z,1019.93
2017-01-22T10:14:38.483Z,1019.96
2017-01-22T10:15:42.690Z,1019.93
2017-01-22T10:16:48.874Z,1019.93
2017-01-22T10:17:54.088Z,1019.96
2017-01-22T10:18:56.367Z,1019.94
2017-01-22T10:20:01.575Z,1019.93
2017-01-22T10:21:05.837Z,1019.94
2017-01-22T10:22:12.077Z,1019.93
2017-01-22T10:23:17.258Z,1019.9
2017-01-22T10:24:23.467Z,1019.86
2017-01-22T10:25:29.621Z,1019.88
2017-01-22T10:26:34.836Z,1019.87
2017-01-22T10:27:41.009Z,1019.85
2017-01-22T10:28:47.183Z,1019.88
2017-01-22T10:29:53.375Z,1019.83
2017-01-22T10:30:58.601Z,1019.87
2017-01-22T10:32:02.839Z,1019.81
2017-01-22T10:33:09.019Z,1019.84
2017-01-22T10:34:15.201Z,1019.82
2017-01-22T10:35:19.492Z,1019.83
2017-01-22T10:36:24.696Z,1019.81
2017-01-22T10:37:29.912Z,1019.84
2017-01-22T10:38:34.122Z,1019.74
2017-01-22T10:39:38.333Z,1019.75
2017-01-22T10:40:43.583Z,1019.72
2017-01-22T10:41:48.751Z,1019.67
2017-01-22T10:42:53.958Z,1019.68
2017-01-22T10:44:00.141Z,1019.66
2017-01-22T10:45:06.315Z,1019.6
2017-01-22T10:46:11.540Z,1019.64
2017-01-22T10:47:16.743Z,1019.63
2017-01-22T10:48:20.990Z,1019.59
2017-01-22T10:49:26.361Z,1019.61
2017-01-22T10:50:32.561Z,1019.61
2017-01-22T10:51:37.771Z,1019.58
2017-01-22T10:52:42.011Z,1019.57
2017-01-22T10:53:47.218Z,1019.54
2017-01-22T10:54:53.398Z,1019.55
2017-01-22T10:55:58.610Z,1019.51
2017-01-22T10:57:02.919Z,1019.53
2017-01-22T10:58:08.158Z,1019.53
2017-01-22T10:59:13.392Z,1019.49
2017-01-22T11:00:19.689Z,1019.49
2017-01-22T11:01:23.886Z,1019.5
2017-01-22T11:02:29.096Z,1019.51
2017-01-22T11:03:35.268Z,1019.49
2017-01-22T11:04:41.440Z,1019.49
2017-01-22T11:05:46.649Z,1019.45
2017-01-22T11:06:52.838Z,1019.49
2017-01-22T11:07:58.040Z,1019.51
2017-01-22T11:09:03.259Z,1019.52
2017-01-22T11:10:08.425Z,1019.49
2017-01-22T11:11:13.627Z,1019.52
2017-01-22T11:12:19.848Z,1019.48
2017-01-22T11:13:24.104Z,1019.52
2017-01-22T11:14:28.362Z,1019.47
2017-01-22T11:15:34.530Z,1019.49
2017-01-22T11:16:39.740Z,1019.45
2017-01-22T11:17:44.944Z,1019.48
2017-01-22T11:18:49.240Z,1019.46
2017-01-22T11:19:54.454Z,1019.45
2017-01-22T11:21:00.635Z,1019.43
2017-01-22T11:22:04.849Z,1019.44
2017-01-22T11:23:11.017Z,1019.44
2017-01-22T11:24:16.229Z,1019.46
2017-01-22T11:25:20.466Z,1019.42
2017-01-22T11:26:25.625Z,1019.45
2017-01-22T11:27:31.812Z,1019.47
2017-01-22T11:28:37.044Z,1019.46
2017-01-22T11:29:42.194Z,1019.42
2017-01-22T11:30:47.364Z,1019.48
2017-01-22T11:31:53.539Z,1019.43
2017-01-22T11:32:59.733Z,1019.43
2017-01-22T11:34:03.944Z,1019.36
2017-01-22T11:35:09.144Z,1019.39
2017-01-22T11:36:15.309Z,1019.35
2017-01-22T11:37:20.522Z,1019.37
2017-01-22T11:38:26.689Z,1019.34
2017-01-22T11:39:31.865Z,1019.35
2017-01-22T11:40:37.071Z,1019.33
2017-01-22T11:41:41.405Z,1019.33
2017-01-22T11:42:47.566Z,1019.31
2017-01-22T11:43:53.745Z,1019.34
2017-01-22T11:45:00.016Z,1019.31
2017-01-22T11:46:06.192Z,1019.29
2017-01-22T11:47:12.369Z,1019.27
2017-01-22T11:48:17.570Z,1019.26
2017-01-22T11:49:22.776Z,1019.23
2017-01-22T11:50:27.002Z,1019.24
2017-01-22T11:51:32.245Z,1019.2
2017-01-22T11:52:38.427Z,1019.18
2017-01-22T11:53:44.598Z,1019.15
2017-01-22T11:54:49.797Z,1019.13
2017-01-22T11:55:54.998Z,1019.09
2017-01-22T11:57:00.209Z,1019.11
2017-01-22T11:58:05.411Z,1019.07
2017-01-22T11:59:10.612Z,1019.01
2017-01-22T12:00:16.790Z,1019.02
2017-01-22T12:01:19.060Z,1018.99
2017-01-22T12:02:23.283Z,1019.04
2017-01-22T12:03:28.489Z,1018.98
2017-01-22T12:04:33.680Z,1018.92
2017-01-22T12:05:36.946Z,1018.93
2017-01-22T12:06:38.261Z,1018.88
2017-01-22T12:07:41.521Z,1018.92
2017-01-22T12:08:46.694Z,1018.85
2017-01-22T12:09:52.867Z,1018.81
2017-01-22T12:10:59.037Z,1018.83
2017-01-22T12:12:04.213Z,1018.82
2017-01-22T12:13:10.377Z,1018.8
2017-01-22T12:14:15.554Z,1018.82
2017-01-22T12:15:20.755Z,1018.82
2017-01-22T12:16:25.954Z,1018.8
2017-01-22T12:17:32.123Z,1018.79
2017-01-22T12:18:38.293Z,1018.79
2017-01-22T12:19:42.521Z,1018.79
2017-01-22T12:20:48.687Z,1018.78
2017-01-22T12:21:53.858Z,1018.76
2017-01-22T12:23:00.020Z,1018.75
2017-01-22T12:24:05.205Z,1018.73
2017-01-22T12:25:11.432Z,1018.73
2017-01-22T12:26:15.643Z,1018.66
2017-01-22T12:27:19.979Z,1018.68
2017-01-22T12:28:25.185Z,1018.66
2017-01-22T12:29:29.424Z,1018.66
2017-01-22T12:30:34.604Z,1018.65
2017-01-22T12:31:39.803Z,1018.64
2017-01-22T12:32:45.102Z,1018.65
2017-01-22T12:33:51.274Z,1018.64
2017-01-22T12:34:57.538Z,1018.61
2017-01-22T12:36:01.906Z,1018.59
2017-01-22T12:37:07.109Z,1018.59
2017-01-22T12:38:13.277Z,1018.56
2017-01-22T12:39:18.558Z,1018.51
2017-01-22T12:40:22.764Z,1018.5
2017-01-22T12:41:27.059Z,1018.5
2017-01-22T12:42:32.235Z,1018.48
2017-01-22T12:43:38.405Z,1018.5
2017-01-22T12:44:44.571Z,1018.46
2017-01-22T12:45:48.809Z,1018.42
2017-01-22T12:46:54.032Z,1018.43
2017-01-22T12:48:00.181Z,1018.42
2017-01-22T12:49:05.353Z,1018.4
2017-01-22T12:50:10.527Z,1018.39
2017-01-22T12:51:15.730Z,1018.35
2017-01-22T12:52:20.932Z,1018.35
2017-01-22T12:53:25.162Z,1018.31
2017-01-22T12:54:31.347Z,1018.34
2017-01-22T12:55:36.511Z,1018.36
2017-01-22T12:56:41.688Z,1018.34
2017-01-22T12:57:46.906Z,1018.32
2017-01-22T12:58:53.121Z,1018.34
2017-01-22T12:59:57.334Z,1018.36
2017-01-22T13:01:02.540Z,1018.38
2017-01-22T13:02:07.753Z,1018.34
2017-01-22T13:03:12.918Z,1018.33
2017-01-22T13:04:17.155Z,1018.29
2017-01-22T13:05:22.366Z,1018.31
2017-01-22T13:06:27.569Z,1018.28
2017-01-22T13:07:33.787Z,1018.28
2017-01-22T13:08:39.969Z,1018.26
2017-01-22T13:09:45.168Z,1018.25
2017-01-22T13:10:49.412Z,1018.24
2017-01-22T13:11:54.622Z,1018.29
2017-01-22T13:13:00.806Z,1018.27